createdAt,value
2022-09-09T00:00:55.917Z,1012.37
2022-09-09T00:01:56.127Z,1012.35
2022-09-09T00:02:56.351Z,1012.37
2022-09-09T00:03:56.457Z,1012.38
2022-09-09T00:04:56.616Z,1012.34
2022-09-09T00:05:56.778Z,1012.37
2022-09-09T00:06:56.926Z,1012.39
2022-09-09T00:07:57.146Z,1012.40
2022-09-09T00:08:57.304Z,1012.38
2022-09-09T00:09:57.467Z,1012.43
2022-09-09T00:10:57.627Z,1012.42
2022-09-09T00:11:57.788Z,1012.43
2022-09-09T00:12:58.056Z,1012.41
2022-09-09T00:13:58.126Z,1012.41
2022-09-09T00:14:58.287Z,1012.43
2022-09-09T00:15:58.499Z,1012.39
2022-09-09T00:16:58.620Z,1012.44
2022-09-09T00:17:58.807Z,1012.37
2022-09-09T00:18:58.968Z,1012.38
2022-09-09T00:19:59.141Z,1012.37
2022-09-09T00:20:59.310Z,1012.33
2022-09-09T00:21:59.464Z,1012.34
2022-09-09T00:22:59.651Z,1012.33
2022-09-09T00:23:59.814Z,1012.32
2022-09-09T00:24:59.980Z,1012.30
2022-09-09T00:26:00.140Z,1012.30
2022-09-09T00:27:00.303Z,1012.30
2022-09-09T00:28:00.478Z,1012.29
2022-09-09T00:29:00.637Z,1012.29
2022-09-09T00:30:00.835Z,1012.21
2022-09-09T00:31:01.004Z,1012.21
2022-09-09T00:32:01.157Z,1012.20
2022-09-09T00:33:01.337Z,1012.27
2022-09-09T00:34:01.498Z,1012.24
2022-09-09T00:35:01.658Z,1012.22
2022-09-09T00:36:01.823Z,1012.20
2022-09-09T00:37:01.978Z,1012.20
2022-09-09T00:38:02.157Z,1012.21
2022-09-09T00:39:02.327Z,1012.20
2022-09-09T00:40:02.527Z,1012.20
2022-09-09T00:41:02.658Z,1012.19
2022-09-09T00:42:02.866Z,1012.22
2022-09-09T00:43:03.047Z,1012.22
2022-09-09T00:44:03.211Z,1012.23
2022-09-09T00:45:03.368Z,1012.23
2022-09-09T00:46:03.575Z,1012.24
2022-09-09T00:47:03.718Z,1012.17
2022-09-09T00:48:03.906Z,1012.19
2022-09-09T00:49:04.058Z,1012.20
2022-09-09T00:50:04.248Z,1012.20
2022-09-09T00:51:04.407Z,1012.17
2022-09-09T00:52:04.608Z,1012.21
2022-09-09T00:53:04.807Z,1012.19
2022-09-09T00:54:04.929Z,1012.22
2022-09-09T00:55:05.096Z,1012.21
2022-09-09T00:56:05.258Z,1012.22
2022-09-09T00:57:05.418Z,1012.22
2022-09-09T00:58:05.607Z,1012.24
2022-09-09T00:59:05.738Z,1012.26
2022-09-09T01:00:05.898Z,1012.27
2022-09-09T01:01:06.107Z,1012.25
2022-09-09T01:02:06.264Z,1012.22
2022-09-09T01:03:06.429Z,1012.23
2022-09-09T01:04:06.602Z,1012.23
2022-09-09T01:05:06.748Z,1012.25
2022-09-09T01:06:06.940Z,1012.24
2022-09-09T01:07:07.120Z,1012.25
2022-09-09T01:08:07.288Z,1012.27
2022-09-09T01:09:07.450Z,1012.25
2022-09-09T01:10:07.608Z,1012.26
2022-09-09T01:11:07.786Z,1012.26
2022-09-09T01:12:07.949Z,1012.30
2022-09-09T01:13:08.136Z,1012.28
2022-09-09T01:14:08.299Z,1012.29
2022-09-09T01:15:08.468Z,1012.29
2022-09-09T01:16:08.629Z,1012.28
2022-09-09T01:17:08.791Z,1012.24
2022-09-09T01:18:08.985Z,1012.24
2022-09-09T01:19:09.118Z,1012.24
2022-09-09T01:20:09.281Z,1012.27
2022-09-09T01:21:09.468Z,1012.28
2022-09-09T01:22:09.628Z,1012.28
2022-09-09T01:23:09.830Z,1012.26
2022-09-09T01:24:09.949Z,1012.35
2022-09-09T01:25:10.148Z,1012.33
2022-09-09T01:26:10.327Z,1012.40
2022-09-09T01:27:10.469Z,1012.36
2022-09-09T01:28:10.654Z,1012.36
2022-09-09T01:29:10.809Z,1012.42
2022-09-09T01:30:10.987Z,1012.39
2022-09-09T01:31:11.291Z,1012.39
2022-09-09T01:32:11.329Z,1012.37
2022-09-09T01:33:11.521Z,1012.38
2022-09-09T01:34:11.671Z,1012.33
2022-09-09T01:35:11.837Z,1012.36
2022-09-09T01:36:11.988Z,1012.31
2022-09-09T01:37:12.188Z,1012.31
2022-09-09T01:38:12.369Z,1012.35
2022-09-09T01:39:12.510Z,1012.34
2022-09-09T01:40:12.725Z,1012.34
2022-09-09T01:41:12.859Z,1012.36
2022-09-09T01:42:13.017Z,1012.35
2022-09-09T01:43:13.209Z,1012.33
2022-09-09T01:44:13.329Z,1012.37
2022-09-09T01:45:13.529Z,1012.36
2022-09-09T01:46:13.710Z,1012.37
2022-09-09T01:47:13.859Z,1012.37
2022-09-09T01:48:14.039Z,1012.43
2022-09-09T01:49:14.200Z,1012.40
2022-09-09T01:50:14.390Z,1012.37
2022-09-09T01:51:14.549Z,1012.37
2022-09-09T01:52:14.718Z,1012.36
2022-09-09T01:53:14.899Z,1012.31
2022-09-09T01:54:15.049Z,1012.33
2022-09-09T01:55:15.249Z,1012.31
2022-09-09T01:56:15.399Z,1012.32
2022-09-09T01:57:15.608Z,1012.32
2022-09-09T01:58:15.779Z,1012.37
2022-09-09T01:59:15.939Z,1012.36
2022-09-09T02:00:16.109Z,1012.36
2022-09-09T02:01:16.367Z,1012.41
2022-09-09T02:02:16.486Z,1012.42
2022-09-09T02:03:17.151Z,1012.39
2022-09-09T02:04:16.821Z,1012.35
2022-09-09T02:05:16.970Z,1012.39
2022-09-09T02:06:17.161Z,1012.36
2022-09-09T02:07:17.319Z,1012.32
2022-09-09T02:08:17.499Z,1012.36
2022-09-09T02:09:17.683Z,1012.36
2022-09-09T02:10:17.829Z,1012.35
2022-09-09T02:11:18.030Z,1012.38
2022-09-09T02:12:18.213Z,1012.40
2022-09-09T02:13:18.381Z,1012.40
2022-09-09T02:14:18.549Z,1012.47
2022-09-09T02:15:18.713Z,1012.49
2022-09-09T02:16:18.911Z,1012.48
2022-09-09T02:17:19.067Z,1012.46
2022-09-09T02:18:19.230Z,1012.45
2022-09-09T02:19:19.420Z,1012.45
2022-09-09T02:20:19.584Z,1012.42
2022-09-09T02:21:19.740Z,1012.43
2022-09-09T02:22:19.910Z,1012.45
2022-09-09T02:23:20.165Z,1012.45
2022-09-09T02:24:20.255Z,1012.44
2022-09-09T02:25:20.410Z,1012.41
2022-09-09T02:26:20.616Z,1012.42
2022-09-09T02:27:20.760Z,1012.41
2022-09-09T02:28:20.920Z,1012.43
2022-09-09T02:29:21.080Z,1012.43
2022-09-09T02:30:21.363Z,1012.43
2022-09-09T02:31:21.423Z,1012.40
2022-09-09T02:32:21.559Z,1012.43
2022-09-09T02:33:21.749Z,1012.38
2022-09-09T02:34:21.909Z,1012.39
2022-09-09T02:35:22.078Z,1012.38
2022-09-09T02:36:22.230Z,1012.33
2022-09-09T02:37:22.399Z,1012.36
2022-09-09T02:38:22.571Z,1012.37
2022-09-09T02:39:22.738Z,1012.39
2022-09-09T02:40:22.900Z,1012.35
2022-09-09T02:41:23.060Z,1012.37
2022-09-09T02:42:23.216Z,1012.38
2022-09-09T02:43:23.431Z,1012.45
2022-09-09T02:44:23.581Z,1012.40
2022-09-09T02:45:23.751Z,1012.43
2022-09-09T02:46:23.936Z,1012.43
2022-09-09T02:47:24.070Z,1012.42
2022-09-09T02:48:24.281Z,1012.44
2022-09-09T02:49:24.482Z,1012.44
2022-09-09T02:50:24.624Z,1012.42
2022-09-09T02:51:24.771Z,1012.43
2022-09-09T02:52:24.941Z,1012.41
2022-09-09T02:53:25.153Z,1012.41
2022-09-09T02:54:25.310Z,1012.43
2022-09-09T02:55:25.473Z,1012.40
2022-09-09T02:56:25.630Z,1012.38
2022-09-09T02:57:25.820Z,1012.44
2022-09-09T02:58:25.991Z,1012.46
2022-09-09T02:59:26.140Z,1012.49
2022-09-09T03:00:26.308Z,1012.51
2022-09-09T03:01:26.528Z,1012.51
2022-09-09T03:02:26.705Z,1012.50
2022-09-09T03:03:26.841Z,1012.55
2022-09-09T03:04:26.991Z,1012.52
2022-09-09T03:05:27.162Z,1012.49
2022-09-09T03:06:27.311Z,1012.52
2022-09-09T03:07:27.482Z,1012.56
2022-09-09T03:08:27.662Z,1012.57
2022-09-09T03:09:27.831Z,1012.54
2022-09-09T03:10:27.998Z,1012.53
2022-09-09T03:11:28.159Z,1012.49
2022-09-09T03:12:28.320Z,1012.53
2022-09-09T03:13:28.500Z,1012.53
2022-09-09T03:14:28.663Z,1012.49
2022-09-09T03:15:28.861Z,1012.54
2022-09-09T03:16:29.045Z,1012.52
2022-09-09T03:17:29.199Z,1012.58
2022-09-09T03:18:29.460Z,1012.57
2022-09-09T03:19:29.532Z,1012.59
2022-09-09T03:20:29.691Z,1012.55
2022-09-09T03:21:29.869Z,1012.59
2022-09-09T03:22:30.023Z,1012.62
2022-09-09T03:23:30.201Z,1012.58
2022-09-09T03:24:30.367Z,1012.63
2022-09-09T03:25:30.528Z,1012.66
2022-09-09T03:26:30.701Z,1012.71
2022-09-09T03:27:30.861Z,1012.72
2022-09-09T03:28:31.041Z,1012.73
2022-09-09T03:29:31.210Z,1012.80
2022-09-09T03:30:31.361Z,1012.74
2022-09-09T03:31:31.654Z,1012.74
2022-09-09T03:32:31.692Z,1012.72
2022-09-09T03:33:31.891Z,1012.68
2022-09-09T03:34:32.060Z,1012.70
2022-09-09T03:35:32.223Z,1012.71
2022-09-09T03:36:32.382Z,1012.68
2022-09-09T03:37:32.551Z,1012.70
2022-09-09T03:38:32.750Z,1012.71
2022-09-09T03:39:32.965Z,1012.72
2022-09-09T03:40:33.061Z,1012.73
2022-09-09T03:41:33.223Z,1012.70
2022-09-09T03:42:33.393Z,1012.75
2022-09-09T03:43:33.562Z,1012.71
2022-09-09T03:44:33.721Z,1012.72
2022-09-09T03:45:33.978Z,1012.71
2022-09-09T03:46:34.101Z,1012.74
2022-09-09T03:47:34.263Z,1012.72
2022-09-09T03:48:34.503Z,1012.73
2022-09-09T03:49:34.611Z,1012.72
2022-09-09T03:50:34.776Z,1012.70
2022-09-09T03:51:34.932Z,1012.70
2022-09-09T03:52:35.095Z,1012.71
2022-09-09T03:53:35.275Z,1012.64
2022-09-09T03:54:35.433Z,1012.65
2022-09-09T03:55:35.593Z,1012.64
2022-09-09T03:56:35.751Z,1012.63
2022-09-09T03:57:35.975Z,1012.66
2022-09-09T03:58:36.154Z,1012.67
2022-09-09T03:59:36.293Z,1012.64
2022-09-09T04:00:36.443Z,1012.64
2022-09-09T04:01:36.642Z,1012.61
2022-09-09T04:02:36.841Z,1012.61
2022-09-09T04:03:37.012Z,1012.61
2022-09-09T04:04:37.172Z,1012.61
2022-09-09T04:05:37.370Z,1012.67
2022-09-09T04:06:37.536Z,1012.68
2022-09-09T04:07:37.692Z,1012.64
2022-09-09T04:08:38.044Z,1012.64
2022-09-09T04:09:38.032Z,1012.67
2022-09-09T04:10:38.205Z,1012.71
2022-09-09T04:11:38.361Z,1012.71
2022-09-09T04:12:38.561Z,1012.67
2022-09-09T04:13:38.754Z,1012.72
2022-09-09T04:14:38.892Z,1012.73
2022-09-09T04:15:39.078Z,1012.76
2022-09-09T04:16:39.280Z,1012.72
2022-09-09T04:17:39.454Z,1012.75
2022-09-09T04:18:39.663Z,1012.74
2022-09-09T04:19:39.820Z,1012.73
2022-09-09T04:20:39.992Z,1012.76
2022-09-09T04:21:40.172Z,1012.74
2022-09-09T04:22:40.352Z,1012.77
2022-09-09T04:23:40.562Z,1012.79
2022-09-09T04:24:40.702Z,1012.77
2022-09-09T04:25:40.897Z,1012.77
2022-09-09T04:26:41.063Z,1012.80
2022-09-09T04:27:41.210Z,1012.77
2022-09-09T04:28:41.381Z,1012.82
2022-09-09T04:29:41.522Z,1012.84
2022-09-09T04:30:41.714Z,1012.83
2022-09-09T04:31:41.934Z,1012.84
2022-09-09T04:32:42.111Z,1012.84
2022-09-09T04:33:42.272Z,1012.84
2022-09-09T04:34:42.415Z,1012.86
2022-09-09T04:35:42.592Z,1012.85
2022-09-09T04:36:42.756Z,1012.86
2022-09-09T04:37:42.939Z,1012.85
2022-09-09T04:38:43.102Z,1012.85
2022-09-09T04:39:43.302Z,1012.84
2022-09-09T04:40:43.412Z,1012.85
2022-09-09T04:41:43.605Z,1012.85
2022-09-09T04:42:43.752Z,1012.89
2022-09-09T04:43:43.943Z,1012.92
2022-09-09T04:44:44.083Z,1012.84
2022-09-09T04:45:44.338Z,1012.84
2022-09-09T04:46:44.442Z,1012.88
2022-09-09T04:47:44.713Z,1012.86
2022-09-09T04:48:44.783Z,1012.87
2022-09-09T04:49:44.933Z,1012.92
2022-09-09T04:50:45.113Z,1012.91
2022-09-09T04:51:45.334Z,1012.92
2022-09-09T04:52:45.474Z,1012.93
2022-09-09T04:53:45.690Z,1012.98
2022-09-09T04:54:45.854Z,1012.98
2022-09-09T04:55:46.014Z,1013.01
2022-09-09T04:56:46.173Z,1013.06
2022-09-09T04:57:46.333Z,1012.98
2022-09-09T04:58:46.511Z,1013.02
2022-09-09T04:59:46.673Z,1013.01
2022-09-09T05:00:46.921Z,1012.95
2022-09-09T05:01:47.085Z,1012.94
2022-09-09T05:02:47.213Z,1012.94
2022-09-09T05:03:47.416Z,1012.97
2022-09-09T05:04:47.557Z,1012.93
2022-09-09T05:05:47.742Z,1012.93
2022-09-09T05:06:47.923Z,1012.90
2022-09-09T05:07:48.123Z,1012.89
2022-09-09T05:08:48.283Z,1012.87
2022-09-09T05:09:48.453Z,1012.86
2022-09-09T05:10:48.633Z,1012.90
2022-09-09T05:11:48.825Z,1012.94
2022-09-09T05:12:49.003Z,1012.87
2022-09-09T05:13:49.203Z,1012.90
2022-09-09T05:14:49.344Z,1012.88
2022-09-09T05:15:49.523Z,1012.90
2022-09-09T05:16:49.704Z,1012.86
2022-09-09T05:17:49.889Z,1012.82
2022-09-09T05:18:50.093Z,1012.82
2022-09-09T05:19:50.233Z,1012.81
2022-09-09T05:20:50.414Z,1012.82
2022-09-09T05:21:50.593Z,1012.78
2022-09-09T05:22:50.774Z,1012.79
2022-09-09T05:23:50.974Z,1012.82
2022-09-09T05:24:51.153Z,1012.79
2022-09-09T05:25:51.314Z,1012.78
2022-09-09T05:26:51.463Z,1012.84
2022-09-09T05:27:51.655Z,1012.80
2022-09-09T05:28:51.863Z,1012.88
2022-09-09T05:29:51.994Z,1012.84
2022-09-09T05:30:52.184Z,1012.90
2022-09-09T05:31:52.450Z,1012.86
2022-09-09T05:32:52.534Z,1012.89
2022-09-09T05:33:52.743Z,1012.91
2022-09-09T05:34:52.884Z,1012.93
2022-09-09T05:35:53.065Z,1012.91
2022-09-09T05:36:53.255Z,1012.89
2022-09-09T05:37:53.424Z,1012.91
2022-09-09T05:38:53.626Z,1012.93
2022-09-09T05:39:53.858Z,1012.95
2022-09-09T05:40:53.974Z,1012.96
2022-09-09T05:41:54.154Z,1012.94
2022-09-09T05:42:54.344Z,1012.93
2022-09-09T05:43:54.525Z,1012.94
2022-09-09T05:44:54.715Z,1012.95
2022-09-09T05:45:54.894Z,1012.94
2022-09-09T05:46:55.137Z,1012.92
2022-09-09T05:47:55.298Z,1012.95
2022-09-09T05:48:55.435Z,1012.95
2022-09-09T05:49:55.624Z,1012.96
2022-09-09T05:50:55.804Z,1012.99
2022-09-09T05:51:55.984Z,1013.03
2022-09-09T05:52:56.165Z,1013.04
2022-09-09T05:53:56.364Z,1013.00
2022-09-09T05:54:56.514Z,1013.01
2022-09-09T05:55:56.755Z,1013.03
2022-09-09T05:56:56.866Z,1013.03
2022-09-09T05:57:57.052Z,1013.07
2022-09-09T05:58:57.355Z,1013.04
2022-09-09T05:59:57.443Z,1013.07
2022-09-09T06:00:57.565Z,1013.11
2022-09-09T06:01:57.922Z,1013.17
2022-09-09T06:02:58.030Z,1013.16
2022-09-09T06:03:58.114Z,1013.10
2022-09-09T06:05:00.635Z,1013.11
2022-09-09T06:05:58.454Z,1013.08
2022-09-09T06:06:58.705Z,1013.08
2022-09-09T06:07:58.825Z,1013.12
2022-09-09T06:08:58.995Z,1013.13
2022-09-09T06:09:59.135Z,1013.13
2022-09-09T06:10:59.364Z,1013.15
2022-09-09T06:11:59.484Z,1013.15
2022-09-09T06:12:59.683Z,1013.18
2022-09-09T06:13:59.855Z,1013.16
2022-09-09T06:14:59.995Z,1013.17
2022-09-09T06:16:00.210Z,1013.19
2022-09-09T06:17:00.368Z,1013.20
2022-09-09T06:18:00.546Z,1013.22
2022-09-09T06:19:00.745Z,1013.17
2022-09-09T06:20:00.922Z,1013.21
2022-09-09T06:21:01.123Z,1013.20
2022-09-09T06:22:01.265Z,1013.22
2022-09-09T06:23:01.445Z,1013.22
2022-09-09T06:24:01.854Z,1013.26
2022-09-09T06:25:01.806Z,1013.22
2022-09-09T06:26:02.949Z,1013.29
2022-09-09T06:27:02.176Z,1013.24
2022-09-09T06:28:02.345Z,1013.27
2022-09-09T06:29:02.548Z,1013.27
2022-09-09T06:30:02.739Z,1013.25
2022-09-09T06:31:02.933Z,1013.27
2022-09-09T06:32:03.103Z,1013.24
2022-09-09T06:33:03.225Z,1013.23
2022-09-09T06:34:03.446Z,1013.19
2022-09-09T06:35:03.586Z,1013.20
2022-09-09T06:36:03.787Z,1013.19
2022-09-09T06:37:03.967Z,1013.21
2022-09-09T06:38:04.147Z,1013.17
2022-09-09T06:39:04.348Z,1013.18
2022-09-09T06:40:04.573Z,1013.19
2022-09-09T06:41:04.676Z,1013.20
2022-09-09T06:42:04.857Z,1013.21
2022-09-09T06:43:05.045Z,1013.21
2022-09-09T06:44:05.235Z,1013.22
2022-09-09T06:45:05.396Z,1013.21
2022-09-09T06:46:05.566Z,1013.22
2022-09-09T06:47:05.820Z,1013.20
2022-09-09T06:48:05.944Z,1013.16
2022-09-09T06:49:06.137Z,1013.17
2022-09-09T06:50:06.312Z,1013.22
2022-09-09T06:51:06.499Z,1013.21
2022-09-09T06:52:06.676Z,1013.25
2022-09-09T06:53:06.848Z,1013.27
2022-09-09T06:54:07.123Z,1013.24
2022-09-09T06:55:07.197Z,1013.15
2022-09-09T06:56:07.387Z,1013.17
2022-09-09T06:57:20.926Z,1013.16
2022-09-09T06:58:08.727Z,1013.09
2022-09-09T06:59:07.967Z,1013.03
2022-09-09T07:00:08.105Z,1013.06
2022-09-09T07:01:08.336Z,1013.04
2022-09-09T07:02:08.495Z,1013.08
2022-09-09T07:03:08.628Z,1013.07
2022-09-09T07:04:08.875Z,1013.11
2022-09-09T07:05:08.977Z,1013.11
2022-09-09T07:06:09.158Z,1013.06
2022-09-09T07:07:09.351Z,1013.07
2022-09-09T07:08:09.509Z,1013.10
2022-09-09T07:09:09.718Z,1013.08
2022-09-09T07:10:09.858Z,1013.06
2022-09-09T07:11:12.468Z,1012.98
2022-09-09T07:12:10.217Z,1012.97
2022-09-09T07:13:10.417Z,1013.02
2022-09-09T07:14:10.558Z,1013.02
2022-09-09T07:15:10.757Z,1012.98
2022-09-09T07:16:10.954Z,1013.00
2022-09-09T07:17:11.100Z,1013.01
2022-09-09T07:18:11.281Z,1013.04
2022-09-09T07:19:11.432Z,1013.03
2022-09-09T07:20:11.609Z,1013.05
2022-09-09T07:21:11.806Z,1013.02
2022-09-09T07:22:11.969Z,1013.02
2022-09-09T07:23:12.169Z,1013.08
2022-09-09T07:24:13.792Z,1013.09
2022-09-09T07:25:12.530Z,1013.01
2022-09-09T07:26:12.699Z,1013.02
2022-09-09T07:27:12.882Z,1013.01
2022-09-09T07:28:13.120Z,1013.05
2022-09-09T07:29:16.077Z,1013.09
2022-09-09T07:30:20.920Z,1013.11
2022-09-09T07:31:14.622Z,1013.14
2022-09-09T07:32:13.730Z,1013.18
2022-09-09T07:33:13.940Z,1013.19
2022-09-09T07:34:14.094Z,1013.18
2022-09-09T07:35:14.251Z,1013.20
2022-09-09T07:36:14.420Z,1013.22
2022-09-09T07:37:14.608Z,1013.17
2022-09-09T07:38:14.793Z,1013.18
2022-09-09T07:39:14.970Z,1013.19
2022-09-09T07:40:15.158Z,1013.20
2022-09-09T07:41:15.291Z,1013.16
2022-09-09T07:42:15.461Z,1013.13
2022-09-09T07:43:17.435Z,1013.14
2022-09-09T07:44:15.810Z,1013.13
2022-09-09T07:45:15.972Z,1013.13
2022-09-09T07:46:16.216Z,1013.12
2022-09-09T07:47:16.332Z,1013.16
2022-09-09T07:48:16.512Z,1013.19
2022-09-09T07:49:16.683Z,1013.16
2022-09-09T07:50:16.862Z,1013.20
2022-09-09T07:51:17.040Z,1013.20
2022-09-09T07:52:19.574Z,1013.15
2022-09-09T07:53:17.395Z,1013.16
2022-09-09T07:54:17.577Z,1013.16
2022-09-09T07:55:17.752Z,1013.19
2022-09-09T07:56:17.912Z,1013.16
2022-09-09T07:57:19.551Z,1013.13
2022-09-09T07:58:18.283Z,1013.21
2022-09-09T07:59:18.443Z,1013.18
2022-09-09T08:00:18.594Z,1013.26
2022-09-09T08:01:18.825Z,1013.29
2022-09-09T08:02:18.955Z,1013.29
2022-09-09T08:03:19.166Z,1013.28
2022-09-09T08:04:19.264Z,1013.30
2022-09-09T08:05:19.446Z,1013.26
2022-09-09T08:06:19.616Z,1013.24
2022-09-09T08:07:19.818Z,1013.29
2022-09-09T08:08:19.945Z,1013.27
2022-09-09T08:09:20.135Z,1013.24
2022-09-09T08:10:20.389Z,1013.19
2022-09-09T08:11:20.495Z,1013.19
2022-09-09T08:12:20.666Z,1013.21
2022-09-09T08:13:20.845Z,1013.21
2022-09-09T08:14:21.016Z,1013.20
2022-09-09T08:15:21.206Z,1013.21
2022-09-09T08:16:21.399Z,1013.21
2022-09-09T08:17:21.588Z,1013.22
2022-09-09T08:18:21.716Z,1013.20
2022-09-09T08:19:21.883Z,1013.19
2022-09-09T08:20:22.047Z,1013.25
2022-09-09T08:21:22.227Z,1013.19
2022-09-09T08:22:22.387Z,1013.20
2022-09-09T08:23:22.557Z,1013.22
2022-09-09T08:24:22.717Z,1013.22
2022-09-09T08:25:22.888Z,1013.19
2022-09-09T08:26:23.059Z,1013.20
2022-09-09T08:27:23.238Z,1013.19
2022-09-09T08:28:23.417Z,1013.18
2022-09-09T08:29:23.614Z,1013.17
2022-09-09T08:30:23.789Z,1013.19
2022-09-09T08:32:24.192Z,1013.12
2022-09-09T08:33:24.350Z,1013.14
2022-09-09T08:34:24.518Z,1013.14
2022-09-09T08:35:24.690Z,1013.15
2022-09-09T08:36:24.861Z,1013.16
2022-09-09T08:37:25.044Z,1013.19
2022-09-09T08:38:25.199Z,1013.18
2022-09-09T08:39:25.369Z,1013.20
2022-09-09T08:40:25.546Z,1013.21
2022-09-09T08:41:25.711Z,1013.22
2022-09-09T08:42:25.902Z,1013.21
2022-09-09T08:43:26.060Z,1013.19
2022-09-09T08:44:26.231Z,1013.23
2022-09-09T08:45:26.402Z,1013.27
2022-09-09T08:46:26.663Z,1013.32
2022-09-09T08:47:30.522Z,1013.34
2022-09-09T08:48:27.906Z,1013.32
2022-09-09T08:49:27.076Z,1013.37
2022-09-09T08:50:27.233Z,1013.33
2022-09-09T08:51:27.411Z,1013.29
2022-09-09T08:52:27.624Z,1013.33
2022-09-09T08:53:27.771Z,1013.28
2022-09-09T08:54:50.632Z,1013.31
2022-09-09T08:55:29.079Z,1013.29
2022-09-09T08:56:28.235Z,1013.31
2022-09-09T08:57:28.439Z,1013.31
2022-09-09T08:58:28.563Z,1013.30
2022-09-09T08:59:28.762Z,1013.29
2022-09-09T09:00:28.884Z,1013.31
2022-09-09T09:01:29.122Z,1013.34
2022-09-09T09:02:29.225Z,1013.34
2022-09-09T09:03:29.404Z,1013.28
2022-09-09T09:04:29.630Z,1013.24
2022-09-09T09:05:29.753Z,1013.28
2022-09-09T09:06:29.944Z,1013.26
2022-09-09T09:07:32.832Z,1013.23
2022-09-09T09:08:30.305Z,1013.23
2022-09-09T09:09:30.496Z,1013.18
2022-09-09T09:10:41.680Z,1013.16
2022-09-09T09:11:31.881Z,1013.15
2022-09-09T09:12:31.035Z,1013.13
2022-09-09T09:13:31.213Z,1013.03
2022-09-09T09:14:31.483Z,1013.11
2022-09-09T09:15:32.699Z,1013.10
2022-09-09T09:16:31.739Z,1013.08
2022-09-09T09:17:31.938Z,1013.11
2022-09-09T09:18:32.106Z,1013.09
2022-09-09T09:19:32.287Z,1013.06
2022-09-09T09:20:32.459Z,1013.07
2022-09-09T09:21:32.638Z,1013.03
2022-09-09T09:22:32.828Z,1013.04
2022-09-09T09:23:32.968Z,1013.08
2022-09-09T09:24:33.139Z,1013.09
2022-09-09T09:25:33.331Z,1013.12
2022-09-09T09:26:33.541Z,1013.11
2022-09-09T09:27:33.721Z,1013.10
2022-09-09T09:28:33.937Z,1013.01
2022-09-09T09:29:38.751Z,1013.06
2022-09-09T09:30:35.220Z,1013.02
2022-09-09T09:31:34.410Z,1013.00
2022-09-09T09:32:34.600Z,1012.95
2022-09-09T09:33:34.741Z,1012.95
2022-09-09T09:34:34.931Z,1012.91
2022-09-09T09:35:40.020Z,1012.85
2022-09-09T09:36:36.274Z,1012.85
2022-09-09T09:37:35.929Z,1012.85
2022-09-09T09:40:36.992Z,1012.82
2022-09-09T09:41:36.181Z,1012.85
2022-09-09T09:42:36.373Z,1012.77
2022-09-09T09:43:36.624Z,1012.72
2022-09-09T09:44:36.703Z,1012.72
2022-09-09T09:45:36.878Z,1012.68
2022-09-09T09:46:37.106Z,1012.71
2022-09-09T09:47:37.255Z,1012.66
2022-09-09T09:48:37.435Z,1012.71
2022-09-09T09:49:37.605Z,1012.70
2022-09-09T09:50:37.785Z,1012.75
2022-09-09T09:51:37.955Z,1012.71
2022-09-09T09:52:38.146Z,1012.74
2022-09-09T09:53:38.349Z,1012.72
2022-09-09T09:54:38.477Z,1012.66
2022-09-09T09:55:38.637Z,1012.77
2022-09-09T09:56:38.846Z,1012.78
2022-09-09T09:57:39.086Z,1012.79
2022-09-09T09:58:39.212Z,1012.78
2022-09-09T09:59:40.294Z,1012.70
2022-09-09T10:00:39.537Z,1012.82
2022-09-09T10:01:39.782Z,1012.80
2022-09-09T10:02:39.918Z,1012.87
2022-09-09T10:03:40.059Z,1012.89
2022-09-09T10:04:40.300Z,1012.78
2022-09-09T10:05:40.401Z,1012.79
2022-09-09T10:06:40.589Z,1012.80
2022-09-09T10:07:40.778Z,1012.82
2022-09-09T10:08:40.951Z,1012.83
2022-09-09T10:09:41.111Z,1012.87
2022-09-09T10:10:44.973Z,1012.88
2022-09-09T10:11:42.485Z,1012.82
2022-09-09T10:12:41.697Z,1012.91
2022-09-09T10:13:41.840Z,1012.88
2022-09-09T10:14:42.011Z,1012.80
2022-09-09T10:15:42.179Z,1012.80
2022-09-09T10:16:42.352Z,1012.85
2022-09-09T10:17:42.546Z,1012.83
2022-09-09T10:18:42.734Z,1012.81
2022-09-09T10:19:42.872Z,1012.79
2022-09-09T10:20:43.060Z,1012.83
2022-09-09T10:21:43.243Z,1012.82
2022-09-09T10:22:43.513Z,1012.81
2022-09-09T10:23:43.630Z,1012.82
2022-09-09T10:24:43.802Z,1012.84
2022-09-09T10:25:43.924Z,1012.82
2022-09-09T10:26:44.106Z,1012.79
2022-09-09T10:27:44.300Z,1012.79
2022-09-09T10:28:44.483Z,1012.76
2022-09-09T10:29:44.604Z,1012.74
2022-09-09T10:30:44.868Z,1012.74
2022-09-09T10:31:44.955Z,1012.71
2022-09-09T10:32:45.166Z,1012.75
2022-09-09T10:33:45.339Z,1012.76
2022-09-09T10:34:45.516Z,1012.78
2022-09-09T10:35:45.696Z,1012.75
2022-09-09T10:36:45.890Z,1012.76
2022-09-09T10:37:46.093Z,1012.80
2022-09-09T10:38:46.240Z,1012.79
2022-09-09T10:39:46.464Z,1012.80
2022-09-09T10:40:46.586Z,1012.80
2022-09-09T10:41:46.770Z,1012.82
2022-09-09T10:42:46.977Z,1012.84
2022-09-09T10:43:47.125Z,1012.84
2022-09-09T10:44:47.310Z,1012.86
2022-09-09T10:45:47.524Z,1012.86
2022-09-09T10:46:47.677Z,1012.84
2022-09-09T10:47:47.858Z,1012.83
2022-09-09T10:48:48.015Z,1012.89
2022-09-09T10:49:48.206Z,1012.88
2022-09-09T10:51:05.101Z,1012.87
2022-09-09T10:51:49.539Z,1012.90
2022-09-09T10:52:48.736Z,1012.93
2022-09-09T10:53:48.878Z,1012.87
2022-09-09T10:54:49.069Z,1012.82
2022-09-09T10:55:49.249Z,1012.86
2022-09-09T10:56:49.445Z,1012.84
2022-09-09T10:57:49.611Z,1012.83
2022-09-09T10:58:49.779Z,1012.86
2022-09-09T10:59:49.900Z,1012.79
2022-09-09T11:00:52.049Z,1012.82
2022-09-09T11:01:50.354Z,1012.83
2022-09-09T11:02:50.439Z,1012.80
2022-09-09T11:03:50.643Z,1012.79
2022-09-09T11:04:50.809Z,1012.80
2022-09-09T11:05:50.946Z,1012.79
2022-09-09T11:06:51.131Z,1012.82
2022-09-09T11:07:51.302Z,1012.78
2022-09-09T11:08:53.823Z,1012.74
2022-09-09T11:09:52.594Z,1012.76
2022-09-09T11:10:51.781Z,1012.80
2022-09-09T11:11:51.951Z,1012.79
2022-09-09T11:12:52.161Z,1012.78
2022-09-09T11:13:52.302Z,1012.79
2022-09-09T11:14:52.494Z,1012.73
2022-09-09T11:15:52.680Z,1012.72
2022-09-09T11:16:52.895Z,1012.73
2022-09-09T11:17:52.983Z,1012.66
2022-09-09T11:18:53.163Z,1012.75
2022-09-09T11:19:53.343Z,1012.68
2022-09-09T11:20:53.534Z,1012.73
2022-09-09T11:21:53.733Z,1012.74
2022-09-09T11:22:53.919Z,1012.74
2022-09-09T11:23:54.063Z,1012.73
2022-09-09T11:24:54.244Z,1012.70
2022-09-09T11:25:54.449Z,1012.71
2022-09-09T11:26:54.638Z,1012.72
2022-09-09T11:27:54.817Z,1012.73
2022-09-09T11:28:54.987Z,1012.72
2022-09-09T11:29:55.157Z,1012.69
2022-09-09T11:30:56.946Z,1012.71
2022-09-09T11:31:55.525Z,1012.68
2022-09-09T11:32:55.664Z,1012.66
2022-09-09T11:33:55.835Z,1012.68
2022-09-09T11:34:56.044Z,1012.69
2022-09-09T11:35:56.186Z,1012.70
2022-09-09T11:36:56.395Z,1012.74
2022-09-09T11:37:56.537Z,1012.73
2022-09-09T11:38:56.737Z,1012.74
2022-09-09T11:39:56.920Z,1012.79
2022-09-09T11:40:57.076Z,1012.77
2022-09-09T11:41:57.256Z,1012.72
2022-09-09T11:42:57.439Z,1012.69
2022-09-09T11:43:57.607Z,1012.65
2022-09-09T11:44:57.786Z,1012.65
2022-09-09T11:46:00.349Z,1012.63
2022-09-09T11:46:58.179Z,1012.64
2022-09-09T11:47:58.309Z,1012.60
2022-09-09T11:48:58.488Z,1012.64
2022-09-09T11:49:58.681Z,1012.61
2022-09-09T11:50:58.849Z,1012.60
2022-09-09T11:51:59.039Z,1012.59
2022-09-09T11:52:59.249Z,1012.57
2022-09-09T11:53:59.379Z,1012.56
2022-09-09T11:54:59.577Z,1012.57
2022-09-09T11:55:59.729Z,1012.57
2022-09-09T11:56:59.916Z,1012.58
2022-09-09T11:58:00.060Z,1012.59
2022-09-09T11:59:00.234Z,1012.56
2022-09-09T12:00:00.417Z,1012.61
2022-09-09T12:01:00.591Z,1012.61
2022-09-09T12:02:00.788Z,1012.61
2022-09-09T12:03:00.931Z,1012.58
2022-09-09T12:04:01.162Z,1012.61
2022-09-09T12:05:01.333Z,1012.61
2022-09-09T12:06:01.460Z,1012.56
2022-09-09T12:07:01.675Z,1012.53
2022-09-09T12:08:01.801Z,1012.54
2022-09-09T12:09:01.983Z,1012.51
2022-09-09T12:10:02.175Z,1012.47
2022-09-09T12:11:02.342Z,1012.44